Current Weather

Travis Afb

Fairfield, California (KSUU)

Report from: Wednesday, August 17, 2022 5:58 PM PDT
Current time: Wednesday, August 17, 2022 6:26 PM PDT

Nearby weather
Weather history
Weather forecast

Temperature32.1°C (89.8°F)
Heat index30.5°C (86.9°F)
Dew point10.2°C (50.4°F)
Winds 14 kts (7.2 m/s, 16.1 mph) Southwest (230°)
Visibility10 mi. (16.1 km)
Clouds Sky clear
Altimeter29.79 in.Hg (1009 mB)
Relative humidity26 %
Density altitude2,279 ft. (695 m)
Sea-level pressure100.9 kPa (1009 mB, 29.81 in.Hg)
Remarks Fully automated report
System requires maintenance
Automated weather observing station with precipitation discriminator
Flight conditions Visual Meteorological Conditions
Raw dataKSUU 180058Z AUTO 23014KT 10SM CLR 32/10 A2979 RMK AO2 SLP094 T03210102 $
An error has occurred. This application may no longer respond until reloaded. Reload 🗙